Time;durP1;ratioP1;P1;durP2;ratioP2;P2;SDS_P1;SDS_P2;PMS_P1;PMS_P2;Temp;Humidity;BMP_temperature;BMP_pressure;BME280_temperature;BME280_humidity;BME280_pressure;Samples;Min_cycle;Max_cycle;Signal;HPM_P1;HPM_P2
2021/09/09 00:01:02;;;;;;;0.80;0.40;;;14.80;99.90;;;;;;4917988;29;20446;-75
2021/09/09 00:03:31;;;;;;;0.80;0.40;;;14.80;99.90;;;;;;4917723;29;20437;-74
2021/09/09 00:06:00;;;;;;;0.90;0.50;;;14.70;99.90;;;;;;4917292;29;20788;-74
2021/09/09 00:08:29;;;;;;;0.80;0.40;;;14.70;99.90;;;;;;4916693;29;20465;-75
2021/09/09 00:10:57;;;;;;;0.80;0.40;;;14.70;99.90;;;;;;4917829;29;20422;-75
2021/09/09 00:13:25;;;;;;;0.80;0.40;;;14.70;99.90;;;;;;4918272;29;20508;-74
2021/09/09 00:15:54;;;;;;;0.80;0.40;;;14.70;99.90;;;;;;4918042;29;20489;-74
2021/09/09 00:18:25;;;;;;;0.80;0.43;;;14.70;99.90;;;;;;4918321;29;20449;-75
2021/09/09 00:20:53;;;;;;;0.80;0.40;;;14.70;99.90;;;;;;4918839;29;20427;-75
2021/09/09 00:23:22;;;;;;;0.80;0.40;;;14.70;99.90;;;;;;4918033;29;20419;-74
2021/09/09 00:25:52;;;;;;;0.80;0.40;;;14.70;99.90;;;;;;4918392;29;20759;-75
2021/09/09 00:28:21;;;;;;;0.80;0.40;;;14.70;99.90;;;;;;4918744;29;20445;-74
2021/09/09 00:30:51;;;;;;;0.80;0.40;;;14.70;99.90;;;;;;4919462;29;20436;-74
2021/09/09 00:33:21;;;;;;;0.80;0.40;;;14.70;99.90;;;;;;4928836;29;20457;-74
2021/09/09 00:35:49;;;;;;;0.80;0.40;;;14.70;99.90;;;;;;4930498;29;20422;-74
2021/09/09 00:38:17;;;;;;;0.80;0.40;;;14.60;99.90;;;;;;4929261;29;20466;-74
2021/09/09 00:40:46;;;;;;;0.80;0.40;;;14.70;99.90;;;;;;4929484;29;20441;-74
2021/09/09 00:43:15;;;;;;;0.80;0.40;;;14.60;99.90;;;;;;4917682;29;20430;-74
2021/09/09 00:45:50;;;;;;;0.80;0.47;;;14.60;99.90;;;;;;4916746;29;20500;-75
2021/09/09 00:48:18;;;;;;;0.80;0.40;;;14.60;99.90;;;;;;4916559;29;20778;-74
2021/09/09 00:50:47;;;;;;;0.80;0.40;;;14.60;99.90;;;;;;4916352;29;20459;-75
2021/09/09 00:53:15;;;;;;;0.80;0.40;;;14.50;99.90;;;;;;4917642;29;20832;-74
2021/09/09 00:55:44;;;;;;;0.80;0.40;;;14.40;99.90;;;;;;4916209;29;20447;-74
2021/09/09 00:58:12;;;;;;;0.80;0.40;;;14.40;99.90;;;;;;4916275;29;20453;-74
2021/09/09 01:00:42;;;;;;;0.80;0.40;;;14.50;99.90;;;;;;4916475;29;20428;-74
2021/09/09 01:03:10;;;;;;;0.80;0.40;;;14.50;99.90;;;;;;4916474;29;20436;-74
2021/09/09 01:05:39;;;;;;;0.80;0.40;;;14.50;99.90;;;;;;4916036;29;20410;-74
2021/09/09 01:08:08;;;;;;;0.80;0.50;;;14.50;99.90;;;;;;4915904;29;20979;-75
2021/09/09 01:10:36;;;;;;;0.80;0.53;;;14.50;99.90;;;;;;4916089;29;20841;-74
2021/09/09 01:13:09;;;;;;;0.80;0.47;;;14.50;99.90;;;;;;4916007;29;20453;-74
2021/09/09 01:15:42;;;;;;;0.80;0.40;;;14.50;99.90;;;;;;4916258;29;20434;-75
2021/09/09 01:18:12;;;;;;;0.80;0.40;;;14.40;99.90;;;;;;4916009;29;20458;-75
2021/09/09 01:20:41;;;;;;;0.80;0.40;;;14.40;99.90;;;;;;4918993;29;20410;-75
2021/09/09 01:23:10;;;;;;;0.80;0.40;;;14.40;99.90;;;;;;4920300;29;20473;-74
2021/09/09 01:25:39;;;;;;;0.80;0.40;;;14.40;99.90;;;;;;4920442;29;20421;-75
2021/09/09 01:28:07;;;;;;;0.80;0.40;;;14.40;99.90;;;;;;4919892;29;21070;-74
2021/09/09 01:30:37;;;;;;;0.80;0.40;;;14.30;99.90;;;;;;4919570;29;20504;-74
2021/09/09 01:33:06;;;;;;;0.80;0.40;;;14.30;99.90;;;;;;4919798;29;20476;-75
2021/09/09 01:35:34;;;;;;;0.80;0.40;;;14.30;99.90;;;;;;4919492;29;20435;-75
2021/09/09 01:38:02;;;;;;;0.80;0.50;;;14.20;99.90;;;;;;4919619;29;20443;-75
2021/09/09 01:40:31;;;;;;;0.80;0.40;;;14.20;99.90;;;;;;4919310;29;20393;-75
2021/09/09 01:43:01;;;;;;;0.80;0.40;;;14.30;99.90;;;;;;4918130;29;20407;-74
2021/09/09 01:45:29;;;;;;;0.80;0.40;;;14.30;99.90;;;;;;4919347;29;20422;-75
2021/09/09 01:47:57;;;;;;;0.80;0.40;;;14.20;99.90;;;;;;4919271;29;20473;-75
2021/09/09 01:50:25;;;;;;;0.80;0.50;;;14.20;99.90;;;;;;4919046;29;20460;-75
2021/09/09 01:52:53;;;;;;;0.80;0.40;;;14.10;99.90;;;;;;4919143;29;20868;-74
2021/09/09 01:55:21;;;;;;;0.80;0.40;;;14.00;99.90;;;;;;4919532;29;20425;-74
2021/09/09 01:57:49;;;;;;;0.80;0.40;;;14.00;99.90;;;;;;4920126;29;20452;-75
2021/09/09 02:00:19;;;;;;;0.80;0.40;;;14.00;99.90;;;;;;4919228;29;20417;-74
2021/09/09 02:02:47;;;;;;;0.80;0.40;;;14.00;99.90;;;;;;4919588;29;20935;-75
2021/09/09 02:05:15;;;;;;;0.80;0.40;;;14.00;99.90;;;;;;4919094;29;20424;-74
2021/09/09 02:07:44;;;;;;;0.80;0.40;;;14.00;99.90;;;;;;4918985;29;20464;-75
2021/09/09 02:10:19;;;;;;;0.80;0.40;;;13.90;99.90;;;;;;4919054;29;20583;-75
2021/09/09 02:12:47;;;;;;;0.80;0.40;;;13.90;99.90;;;;;;4917977;29;20493;-74
2021/09/09 02:15:15;;;;;;;0.80;0.40;;;13.90;99.90;;;;;;4919382;29;20408;-74
2021/09/09 02:17:45;;;;;;;0.80;0.40;;;13.90;99.90;;;;;;4919166;29;20450;-74
2021/09/09 02:20:14;;;;;;;0.80;0.40;;;13.90;99.90;;;;;;4918877;29;20409;-74
2021/09/09 02:22:43;;;;;;;0.80;0.50;;;13.90;99.90;;;;;;4918710;29;20414;-74
2021/09/09 02:25:11;;;;;;;0.80;0.40;;;13.90;99.90;;;;;;4919048;29;20404;-74
2021/09/09 02:27:40;;;;;;;0.80;0.40;;;13.90;99.90;;;;;;4918821;29;20424;-74
2021/09/09 02:30:09;;;;;;;0.80;0.40;;;14.00;99.90;;;;;;4920597;29;20436;-75
2021/09/09 02:32:38;;;;;;;0.80;0.40;;;14.00;99.90;;;;;;4922532;29;20525;-74
2021/09/09 02:35:08;;;;;;;0.80;0.40;;;14.00;99.90;;;;;;4904440;29;20745;-74
2021/09/09 02:37:37;;;;;;;0.80;0.40;;;13.90;99.90;;;;;;4918637;29;20449;-75
2021/09/09 02:40:07;;;;;;;0.80;0.40;;;13.90;99.90;;;;;;4901418;29;20432;-75
2021/09/09 02:42:36;;;;;;;0.80;0.50;;;13.90;99.90;;;;;;4919422;29;20441;-74
2021/09/09 02:45:05;;;;;;;0.80;0.40;;;13.80;99.90;;;;;;4922590;29;20425;-74
2021/09/09 02:47:33;;;;;;;0.80;0.40;;;13.70;99.90;;;;;;4922476;29;20509;-75
2021/09/09 02:50:01;;;;;;;0.80;0.40;;;13.60;99.90;;;;;;4902008;29;20412;-73
2021/09/09 02:52:30;;;;;;;0.80;0.40;;;13.60;99.90;;;;;;4917950;29;20434;-74
2021/09/09 02:54:59;;;;;;;0.80;0.40;;;13.70;99.90;;;;;;4918123;29;20417;-75
2021/09/09 02:57:27;;;;;;;0.80;0.40;;;13.70;99.90;;;;;;4917998;29;20414;-75
2021/09/09 02:59:55;;;;;;;0.80;0.40;;;13.60;99.90;;;;;;4918135;29;20999;-75
2021/09/09 03:02:24;;;;;;;0.80;0.40;;;13.70;99.90;;;;;;4918278;29;20422;-75
2021/09/09 03:04:53;;;;;;;0.80;0.50;;;13.60;99.90;;;;;;4918007;29;20424;-76
2021/09/09 03:07:22;;;;;;;0.80;0.40;;;13.60;99.90;;;;;;4917567;29;20438;-75
2021/09/09 03:09:51;;;;;;;0.80;0.40;;;13.50;99.90;;;;;;4918978;29;20493;-76
2021/09/09 03:12:19;;;;;;;0.80;0.40;;;13.50;99.90;;;;;;4918635;29;20480;-76
2021/09/09 03:14:47;;;;;;;0.80;0.40;;;13.40;99.90;;;;;;4918221;29;20967;-75
2021/09/09 03:17:15;;;;;;;0.80;0.50;;;13.40;99.90;;;;;;4917726;29;21000;-75
2021/09/09 03:19:43;;;;;;;0.80;0.50;;;13.40;99.90;;;;;;4918143;29;20901;-75
2021/09/09 03:22:11;;;;;;;0.80;0.40;;;13.40;99.90;;;;;;4918014;29;20417;-74
2021/09/09 03:24:39;;;;;;;0.80;0.50;;;13.40;99.90;;;;;;4917683;29;20489;-75
2021/09/09 03:27:09;;;;;;;0.80;0.40;;;13.40;99.90;;;;;;4917653;29;20482;-75
2021/09/09 03:29:37;;;;;;;0.80;0.40;;;13.50;99.90;;;;;;4917522;29;20548;-75
2021/09/09 03:32:06;;;;;;;0.80;0.40;;;13.60;99.90;;;;;;4917633;29;20397;-74
2021/09/09 03:34:34;;;;;;;0.80;0.40;;;13.60;99.90;;;;;;4917791;29;20489;-75
2021/09/09 03:37:02;;;;;;;0.80;0.40;;;13.80;99.90;;;;;;4918158;29;20415;-75
2021/09/09 03:39:30;;;;;;;0.80;0.40;;;13.80;99.90;;;;;;4917731;29;20453;-75
2021/09/09 03:41:58;;;;;;;0.80;0.40;;;13.70;99.90;;;;;;4917282;29;20469;-75
2021/09/09 03:44:27;;;;;;;0.80;0.40;;;13.70;99.90;;;;;;4916318;29;20425;-75
2021/09/09 03:46:56;;;;;;;0.80;0.40;;;13.70;99.90;;;;;;4917397;29;20404;-75
2021/09/09 03:49:24;;;;;;;0.80;0.50;;;13.70;99.90;;;;;;4917049;29;20544;-75
2021/09/09 03:51:52;;;;;;;0.80;0.40;;;13.70;99.90;;;;;;4917243;29;20468;-75
2021/09/09 03:54:20;;;;;;;0.80;0.40;;;13.60;99.90;;;;;;4916838;29;20469;-75
2021/09/09 03:56:48;;;;;;;0.80;0.40;;;13.60;99.90;;;;;;4917234;29;20393;-75
2021/09/09 03:59:16;;;;;;;0.80;0.40;;;13.50;99.90;;;;;;4917309;29;20818;-75
2021/09/09 04:01:45;;;;;;;0.80;0.40;;;13.50;99.90;;;;;;4917294;29;20446;-76
2021/09/09 04:04:14;;;;;;;0.80;0.40;;;13.50;99.90;;;;;;4917319;29;20939;-76
2021/09/09 04:06:42;;;;;;;0.80;0.40;;;13.40;99.90;;;;;;4917315;29;20469;-76
2021/09/09 04:09:10;;;;;;;0.80;0.40;;;13.40;99.90;;;;;;4917201;29;20524;-76
2021/09/09 04:11:38;;;;;;;0.80;0.40;;;13.40;99.90;;;;;;4916917;29;20425;-76
2021/09/09 04:14:06;;;;;;;0.80;0.40;;;13.40;99.90;;;;;;4917121;29;20457;-76
2021/09/09 04:16:34;;;;;;;0.80;0.40;;;13.40;99.90;;;;;;4900430;29;20964;-76
2021/09/09 04:19:04;;;;;;;0.80;0.40;;;13.40;99.90;;;;;;4916853;29;20456;-76
2021/09/09 04:21:32;;;;;;;0.80;0.50;;;13.40;99.90;;;;;;4916873;29;20481;-76
2021/09/09 04:24:00;;;;;;;0.80;0.40;;;13.40;99.90;;;;;;4917098;29;20484;-75
2021/09/09 04:26:28;;;;;;;0.80;0.40;;;13.30;99.90;;;;;;4917230;29;20440;-75
2021/09/09 04:28:56;;;;;;;0.80;0.40;;;13.30;99.90;;;;;;4917186;29;20479;-76
2021/09/09 04:31:24;;;;;;;0.80;0.40;;;13.30;99.90;;;;;;4917206;29;20472;-75
2021/09/09 04:33:53;;;;;;;0.80;0.40;;;13.20;99.90;;;;;;4917176;29;20473;-76
2021/09/09 04:36:22;;;;;;;0.80;0.40;;;13.20;99.90;;;;;;4917141;29;20418;-76
2021/09/09 04:38:50;;;;;;;0.80;0.50;;;13.20;99.90;;;;;;4916382;29;20829;-76
2021/09/09 04:41:18;;;;;;;0.80;0.40;;;13.40;99.90;;;;;;4916609;29;20912;-75
2021/09/09 04:43:46;;;;;;;0.80;0.40;;;13.50;99.90;;;;;;4916662;29;20792;-76
2021/09/09 04:46:15;;;;;;;0.80;0.40;;;13.60;99.90;;;;;;4916556;29;20414;-76
2021/09/09 04:48:43;;;;;;;0.80;0.50;;;13.70;99.90;;;;;;4915466;29;20490;-76
2021/09/09 04:51:11;;;;;;;0.80;0.40;;;13.70;99.90;;;;;;4916687;29;20393;-75
2021/09/09 04:53:41;;;;;;;0.80;0.40;;;13.80;99.90;;;;;;4916450;29;20460;-76
2021/09/09 04:56:09;;;;;;;0.80;0.40;;;13.70;99.90;;;;;;4899111;29;20449;-76
2021/09/09 04:58:37;;;;;;;0.80;0.50;;;13.70;99.90;;;;;;4916444;29;20457;-76
2021/09/09 05:01:06;;;;;;;0.80;0.40;;;13.60;99.90;;;;;;4916207;29;20500;-76
2021/09/09 05:03:35;;;;;;;0.80;0.40;;;13.60;99.90;;;;;;4916227;29;20412;-76
2021/09/09 05:06:04;;;;;;;0.80;0.40;;;14.00;99.90;;;;;;4916268;29;20414;-76
2021/09/09 05:08:32;;;;;;;0.80;0.50;;;14.60;99.90;;;;;;4915974;29;20450;-76
2021/09/09 05:11:01;;;;;;;0.80;0.40;;;15.30;99.90;;;;;;4916083;29;20485;-76
2021/09/09 05:13:29;;;;;;;0.80;0.40;;;15.50;99.90;;;;;;4916147;29;20864;-76
2021/09/09 05:15:57;;;;;;;0.80;0.40;;;15.30;99.90;;;;;;4915895;29;20480;-76
2021/09/09 05:18:25;;;;;;;0.80;0.40;;;15.00;99.90;;;;;;4916106;29;20446;-76
2021/09/09 05:20:53;;;;;;;0.80;0.40;;;14.70;99.90;;;;;;4916378;29;20439;-76
2021/09/09 05:23:22;;;;;;;0.80;0.40;;;14.50;99.90;;;;;;4916219;29;20493;-76
2021/09/09 05:25:50;;;;;;;0.80;0.40;;;14.50;99.90;;;;;;4916210;29;20739;-75
2021/09/09 05:28:19;;;;;;;0.80;0.40;;;14.50;99.90;;;;;;4916206;29;20485;-75
2021/09/09 05:30:47;;;;;;;0.80;0.40;;;14.50;99.90;;;;;;4915916;29;20932;-75
2021/09/09 05:33:15;;;;;;;0.80;0.40;;;14.50;99.90;;;;;;4916282;29;20951;-75
2021/09/09 05:35:45;;;;;;;0.80;0.40;;;14.50;99.90;;;;;;4915916;29;20960;-76
2021/09/09 05:38:13;;;;;;;0.80;0.40;;;14.60;99.90;;;;;;4916150;29;20855;-76
2021/09/09 05:40:41;;;;;;;0.80;0.40;;;14.70;99.90;;;;;;4916368;29;20955;-76
2021/09/09 05:43:09;;;;;;;0.80;0.43;;;14.80;99.90;;;;;;4916372;29;20953;-75
2021/09/09 05:45:38;;;;;;;0.80;0.40;;;14.90;99.90;;;;;;4899045;29;20445;-75
2021/09/09 05:48:07;;;;;;;0.80;0.50;;;15.00;99.90;;;;;;4916091;29;20416;-75
2021/09/09 05:50:35;;;;;;;0.80;0.40;;;15.10;99.90;;;;;;4914082;29;20408;-75
2021/09/09 05:53:03;;;;;;;0.80;0.40;;;15.30;99.90;;;;;;4890797;29;20463;-74
2021/09/09 05:55:31;;;;;;;0.80;0.40;;;15.40;99.90;;;;;;4895417;29;20545;-76
2021/09/09 05:57:59;;;;;;;0.80;0.40;;;15.50;99.90;;;;;;4896846;29;20458;-75
2021/09/09 06:00:28;;;;;;;0.80;0.40;;;15.70;99.90;;;;;;4897273;29;20482;-75
2021/09/09 06:03:00;;;;;;;0.80;0.40;;;15.80;99.90;;;;;;4897370;29;20445;-75
2021/09/09 06:05:28;;;;;;;0.80;0.40;;;16.00;99.90;;;;;;4897068;29;20400;-75
2021/09/09 06:07:58;;;;;;;0.90;0.40;;;16.10;99.90;;;;;;4903359;29;20539;-75
2021/09/09 06:10:26;;;;;;;0.90;0.40;;;16.30;99.50;;;;;;4911615;29;20433;-75
2021/09/09 06:12:54;;;;;;;0.80;0.40;;;16.40;99.90;;;;;;4909284;29;20468;-75
2021/09/09 06:15:23;;;;;;;0.87;0.40;;;16.50;98.70;;;;;;4903949;29;20501;-75
2021/09/09 06:17:51;;;;;;;0.90;0.40;;;16.70;93.70;;;;;;4910587;29;20435;-75
2021/09/09 06:20:20;;;;;;;0.90;0.40;;;16.70;92.00;;;;;;4924164;29;20439;-75
2021/09/09 06:22:48;;;;;;;0.90;0.40;;;16.80;91.80;;;;;;4914750;29;20743;-75
2021/09/09 06:25:16;;;;;;;0.90;0.50;;;17.00;90.90;;;;;;4915190;29;20425;-75
2021/09/09 06:27:44;;;;;;;0.90;0.40;;;17.10;89.70;;;;;;4910677;29;20767;-75
2021/09/09 06:30:13;;;;;;;0.90;0.40;;;17.30;70.20;;;;;;4915052;29;20417;-75
2021/09/09 06:32:41;;;;;;;0.90;0.40;;;17.40;54.90;;;;;;4910227;29;20411;-75
2021/09/09 06:35:09;;;;;;;0.90;0.40;;;17.50;63.20;;;;;;4905106;29;20505;-74
2021/09/09 06:37:39;;;;;;;0.90;0.40;;;17.60;62.70;;;;;;4901839;29;20429;-76
2021/09/09 06:40:09;;;;;;;0.90;0.40;;;17.70;54.40;;;;;;4901487;29;20393;-76
2021/09/09 06:42:39;;;;;;;0.90;0.40;;;17.80;48.10;;;;;;4901669;29;20843;-75
2021/09/09 06:45:08;;;;;;;0.90;0.40;;;17.80;45.60;;;;;;4914078;29;20919;-76
2021/09/09 06:47:36;;;;;;;0.90;0.50;;;18.00;43.60;;;;;;4918833;29;20436;-75
2021/09/09 06:50:06;;;;;;;0.90;0.40;;;18.00;42.10;;;;;;4919848;29;20472;-75
2021/09/09 06:52:34;;;;;;;0.90;0.40;;;18.10;36.70;;;;;;4922834;29;20428;-74
2021/09/09 06:55:04;;;;;;;0.90;0.40;;;18.20;36.60;;;;;;4914900;29;20462;-75
2021/09/09 06:57:32;;;;;;;0.90;0.40;;;18.30;29.00;;;;;;4913191;29;20435;-76
2021/09/09 07:00:01;;;;;;;0.90;0.40;;;18.40;30.00;;;;;;4908068;29;20775;-76
2021/09/09 07:02:29;;;;;;;0.90;0.50;;;18.50;27.20;;;;;;4907683;29;20408;-75
2021/09/09 07:04:59;;;;;;;0.90;0.50;;;18.50;25.60;;;;;;4881363;29;20398;-75
2021/09/09 07:07:27;;;;;;;0.90;0.40;;;18.60;23.50;;;;;;4881134;29;20433;-76
2021/09/09 07:09:55;;;;;;;0.90;0.40;;;18.70;25.10;;;;;;4881318;29;20936;-76
2021/09/09 07:12:26;;;;;;;0.90;0.40;;;18.80;22.60;;;;;;4888489;29;20405;-76
2021/09/09 07:14:54;;;;;;;0.90;0.40;;;18.80;21.70;;;;;;4899952;29;20461;-75
2021/09/09 07:17:22;;;;;;;0.90;0.40;;;18.90;20.50;;;;;;4899367;29;20409;-75
2021/09/09 07:19:50;;;;;;;0.90;0.40;;;18.90;20.00;;;;;;4899114;29;20501;-75
2021/09/09 07:22:18;;;;;;;0.90;0.40;;;19.00;19.70;;;;;;4899289;29;20433;-75
2021/09/09 07:24:46;;;;;;;0.90;0.40;;;19.10;21.90;;;;;;4899256;29;20633;-75
2021/09/09 07:27:14;;;;;;;0.90;0.40;;;19.20;18.90;;;;;;4882101;29;20733;-74
2021/09/09 07:29:44;;;;;;;0.90;0.40;;;19.30;17.50;;;;;;4898753;29;20956;-76
2021/09/09 07:32:12;;;;;;;0.90;0.40;;;19.30;17.00;;;;;;4898953;29;20759;-75
2021/09/09 07:34:40;;;;;;;0.90;0.40;;;19.30;17.80;;;;;;4899131;29;20405;-75
2021/09/09 07:37:08;;;;;;;0.90;0.40;;;19.50;18.10;;;;;;4899062;29;20932;-76
2021/09/09 07:39:36;;;;;;;0.90;0.40;;;19.60;16.90;;;;;;4898799;29;20473;-76
2021/09/09 07:42:04;;;;;;;0.90;0.40;;;19.70;16.20;;;;;;4882081;29;20502;-76
2021/09/09 07:44:33;;;;;;;0.90;0.40;;;19.80;15.50;;;;;;4896836;29;20415;-76
2021/09/09 07:47:03;;;;;;;0.90;0.40;;;19.90;15.40;;;;;;4898991;29;20434;-75
2021/09/09 07:49:31;;;;;;;0.90;0.40;;;20.00;14.20;;;;;;4899495;29;20436;-75
2021/09/09 07:51:59;;;;;;;0.90;0.40;;;20.10;13.30;;;;;;4899559;29;20473;-79
2021/09/09 07:54:27;;;;;;;0.90;0.40;;;20.30;11.10;;;;;;4882931;29;21033;-76
2021/09/09 07:56:55;;;;;;;0.90;0.40;;;20.30;11.80;;;;;;4901921;29;20452;-76
2021/09/09 07:59:24;;;;;;;0.90;0.40;;;20.40;11.80;;;;;;4903949;29;20829;-76
2021/09/09 08:01:52;;;;;;;0.90;0.40;;;20.40;12.40;;;;;;4892455;29;20450;-75
2021/09/09 08:04:24;;;;;;;0.90;0.40;;;20.40;11.30;;;;;;4891972;29;20413;-76
2021/09/09 08:06:52;;;;;;;0.90;0.40;;;20.60;11.20;;;;;;4903046;29;20429;-76
2021/09/09 08:09:20;;;;;;;0.90;0.40;;;20.60;10.30;;;;;;4909729;29;20449;-77
2021/09/09 08:11:48;;;;;;;0.90;0.40;;;20.70;10.50;;;;;;4906466;29;20433;-77
2021/09/09 08:14:17;;;;;;;0.90;0.40;;;20.80;9.90;;;;;;4893962;29;20409;-76
2021/09/09 08:16:45;;;;;;;0.90;0.40;;;20.80;7.90;;;;;;4909544;29;20509;-74
2021/09/09 08:19:13;;;;;;;0.90;0.40;;;20.90;8.50;;;;;;4908832;29;20486;-75
2021/09/09 08:21:43;;;;;;;0.90;0.40;;;20.90;8.60;;;;;;4905488;29;20574;-75
2021/09/09 08:24:12;;;;;;;0.90;0.40;;;21.00;7.40;;;;;;4910004;29;20439;-76
2021/09/09 08:26:40;;;;;;;0.90;0.40;;;21.00;7.70;;;;;;4910962;29;20426;-76
2021/09/09 08:29:08;;;;;;;0.90;0.40;;;21.10;7.90;;;;;;4909079;29;20552;-76
2021/09/09 08:31:36;;;;;;;0.90;0.40;;;21.20;7.10;;;;;;4908674;29;20515;-74
2021/09/09 08:34:05;;;;;;;0.90;0.40;;;21.30;7.10;;;;;;4907750;29;20888;-75
2021/09/09 08:36:34;;;;;;;0.90;0.40;;;21.40;5.90;;;;;;4897716;29;20497;-75
2021/09/09 08:39:04;;;;;;;0.90;0.40;;;21.50;5.80;;;;;;4906921;29;20425;-75
2021/09/09 08:41:32;;;;;;;0.90;0.40;;;21.40;4.90;;;;;;4904707;29;20433;-74
2021/09/09 08:44:00;;;;;;;0.90;0.40;;;21.60;5.40;;;;;;4906224;29;20401;-75
2021/09/09 08:46:28;;;;;;;0.90;0.40;;;21.60;5.60;;;;;;4902119;29;20941;-75
2021/09/09 08:48:59;;;;;;;0.90;0.40;;;21.80;3.70;;;;;;4906121;29;20449;-75
2021/09/09 08:51:28;;;;;;;0.90;0.40;;;21.70;4.00;;;;;;4906423;29;20453;-74
2021/09/09 08:53:57;;;;;;;0.90;0.40;;;21.90;3.70;;;;;;4907933;29;20511;-75
2021/09/09 08:56:27;;;;;;;0.90;0.47;;;22.00;3.40;;;;;;4911207;29;20797;-75
2021/09/09 08:58:58;;;;;;;0.90;0.40;;;22.10;3.10;;;;;;4911329;29;20952;-75
2021/09/09 09:01:29;;;;;;;0.90;0.40;;;22.10;2.20;;;;;;4901449;29;20404;-76
2021/09/09 09:03:59;;;;;;;0.90;0.40;;;22.00;2.10;;;;;;4906692;29;20430;-75
2021/09/09 09:06:45;;;;;;;0.90;0.40;;;22.10;2.90;;;;;;4908601;29;20421;-76
2021/09/09 09:09:14;;;;;;;0.90;0.40;;;22.30;2.50;;;;;;4927542;23;20521;-73
2021/09/09 09:11:45;;;;;;;0.90;0.40;;;22.30;1.50;;;;;;4897719;29;20449;-73
2021/09/09 09:14:18;;;;;;;0.90;0.40;;;22.30;1.70;;;;;;4913603;29;20429;-72
2021/09/09 09:16:49;;;;;;;0.90;0.40;;;22.40;3.00;;;;;;4915747;29;20541;-73
2021/09/09 09:19:21;;;;;;;0.90;0.40;;;22.60;1.30;;;;;;4915370;29;20430;-72
2021/09/09 09:21:52;;;;;;;0.90;0.40;;;22.50;1.00;;;;;;4915844;29;20577;-73
2021/09/09 09:24:22;;;;;;;0.90;0.40;;;22.50;1.00;;;;;;4913095;29;20983;-73
2021/09/09 09:27:12;;;;;;;0.90;0.40;;;22.70;1.00;;;;;;4913812;29;20421;-73
2021/09/09 09:29:41;;;;;;;0.90;0.40;;;22.80;1.00;;;;;;4914008;29;20521;-73
2021/09/09 09:32:15;;;;;;;0.90;0.40;;;23.00;1.00;;;;;;4910853;29;20424;-71
2021/09/09 09:34:46;;;;;;;0.90;0.40;;;23.10;1.00;;;;;;4913375;29;20404;-71
2021/09/09 09:37:20;;;;;;;0.90;0.40;;;23.20;1.00;;;;;;4913838;29;20473;-72
2021/09/09 09:39:49;;;;;;;0.90;0.40;;;23.30;1.00;;;;;;4914164;29;20425;-71
2021/09/09 09:42:26;;;;;;;0.90;0.40;;;23.50;1.00;;;;;;4917087;29;20465;-72
2021/09/09 09:45:09;;;;;;;0.90;0.40;;;23.50;1.00;;;;;;4917271;29;20408;-73
2021/09/09 09:47:38;;;;;;;0.90;0.40;;;23.40;1.00;;;;;;4917660;29;20429;-72
2021/09/09 09:50:17;;;;;;;0.90;0.40;;;23.40;1.00;;;;;;4917804;29;20463;-73
2021/09/09 09:52:46;;;;;;;0.90;0.40;;;23.40;1.00;;;;;;4915175;29;20556;-74
2021/09/09 09:55:15;;;;;;;0.90;0.40;;;23.50;1.00;;;;;;4917144;29;20407;-72
2021/09/09 09:57:56;;;;;;;0.90;0.40;;;23.40;1.00;;;;;;4928604;29;20428;-74
2021/09/09 10:00:24;;;;;;;1.00;0.40;;;23.50;1.00;;;;;;4933754;29;20421;-73
2021/09/09 10:02:55;;;;;;;0.90;0.40;;;23.60;1.00;;;;;;4923224;29;20464;-72
2021/09/09 10:05:24;;;;;;;0.90;0.40;;;23.70;1.00;;;;;;4931163;29;20413;-72
2021/09/09 10:07:52;;;;;;;0.90;0.40;;;23.60;1.00;;;;;;4932395;29;20487;-73
2021/09/09 10:10:21;;;;;;;0.90;0.40;;;23.60;1.00;;;;;;4944169;29;20447;-73
2021/09/09 10:12:50;;;;;;;0.90;0.40;;;23.70;1.00;;;;;;4922432;29;20864;-73
2021/09/09 10:15:21;;;;;;;0.90;0.40;;;23.90;1.00;;;;;;4907989;29;20445;-74
2021/09/09 10:17:59;;;;;;;0.90;0.40;;;24.10;1.00;;;;;;4923448;29;20574;-73
2021/09/09 10:20:32;;;;;;;0.93;0.40;;;24.30;1.00;;;;;;4922451;29;20430;-72
2021/09/09 10:23:02;;;;;;;1.00;0.40;;;24.40;1.00;;;;;;4923300;29;20479;-73
2021/09/09 10:25:52;;;;;;;1.00;0.40;;;24.50;1.00;;;;;;4920030;29;20944;-71
2021/09/09 10:28:40;;;;;;;0.97;0.40;;;24.60;1.00;;;;;;4927989;29;20481;-70
2021/09/09 10:31:11;;;;;;;0.97;0.40;;;24.80;1.00;;;;;;4922007;29;20412;-71
2021/09/09 10:33:43;;;;;;;1.00;0.40;;;24.70;1.00;;;;;;4919558;29;20457;-72
2021/09/09 10:36:41;;;;;;;1.00;0.50;;;24.60;1.00;;;;;;4935450;29;20432;-73
2021/09/09 10:39:12;;;;;;;0.90;0.40;;;24.60;1.00;;;;;;4935210;29;20403;-72
2021/09/09 10:41:40;;;;;;;0.90;0.40;;;24.60;1.00;;;;;;4924900;29;20544;-73
2021/09/09 10:44:10;;;;;;;0.90;0.40;;;24.70;1.00;;;;;;4927225;29;20432;-73
2021/09/09 10:46:42;;;;;;;0.93;0.40;;;24.80;1.00;;;;;;4935519;29;20428;-73
2021/09/09 10:49:16;;;;;;;1.00;0.40;;;24.90;1.00;;;;;;4935387;29;20503;-74
2021/09/09 10:52:04;;;;;;;0.97;0.40;;;25.00;1.00;;;;;;4923859;29;20492;-73
2021/09/09 10:54:34;;;;;;;0.97;0.40;;;25.10;1.00;;;;;;4923907;29;20523;-74
2021/09/09 10:57:15;;;;;;;1.00;0.40;;;25.10;1.00;;;;;;4904345;29;20446;-75
2021/09/09 10:59:48;;;;;;;1.00;0.40;;;25.10;1.00;;;;;;4899155;29;20540;-71
2021/09/09 11:02:19;;;;;;;0.90;0.40;;;25.20;1.00;;;;;;4920888;29;20803;-73
2021/09/09 11:04:49;;;;;;;0.97;0.40;;;25.30;1.00;;;;;;4907632;29;20462;-72
2021/09/09 11:07:26;;;;;;;0.97;0.40;;;25.40;1.00;;;;;;4916322;29;20512;-73
2021/09/09 11:09:59;;;;;;;1.00;0.40;;;25.60;1.00;;;;;;4915963;29;20473;-74
2021/09/09 11:12:27;;;;;;;0.90;0.40;;;25.70;1.00;;;;;;4913405;29;20466;-74
2021/09/09 11:15:03;;;;;;;0.90;0.40;;;25.60;1.00;;;;;;4915747;29;20418;-71
2021/09/09 11:17:33;;;;;;;0.90;0.40;;;25.70;1.00;;;;;;4910736;29;20711;-74
2021/09/09 11:20:07;;;;;;;0.90;0.40;;;25.80;1.00;;;;;;4916806;29;20440;-73
2021/09/09 11:22:36;;;;;;;0.90;0.40;;;25.80;1.00;;;;;;4913575;29;20552;-73
2021/09/09 11:25:05;;;;;;;1.00;0.40;;;26.00;1.00;;;;;;4901446;29;20450;-73
2021/09/09 11:27:34;;;;;;;1.00;0.40;;;26.00;1.00;;;;;;4914712;29;20430;-72
2021/09/09 11:30:03;;;;;;;1.00;0.40;;;26.00;1.00;;;;;;4914583;29;20432;-70
2021/09/09 11:32:33;;;;;;;1.00;0.40;;;26.10;1.00;;;;;;4913855;29;20517;-71
2021/09/09 11:35:09;;;;;;;0.97;0.40;;;26.20;1.00;;;;;;4915844;29;20425;-73
2021/09/09 11:37:45;;;;;;;0.97;0.40;;;26.30;1.00;;;;;;4915759;29;20472;-73
2021/09/09 11:40:15;;;;;;;0.90;0.40;;;26.30;1.00;;;;;;4915585;29;20403;-71
2021/09/09 11:42:43;;;;;;;1.00;0.40;;;26.30;1.00;;;;;;4916024;29;20548;-71
2021/09/09 11:45:12;;;;;;;0.97;0.40;;;26.20;1.00;;;;;;4915772;29;20437;-71
2021/09/09 11:47:42;;;;;;;0.90;0.40;;;26.20;1.00;;;;;;4915905;29;20430;-71
2021/09/09 11:50:11;;;;;;;0.90;0.40;;;26.30;1.00;;;;;;4915698;29;20432;-71
2021/09/09 11:52:39;;;;;;;0.97;0.40;;;26.30;1.00;;;;;;4899307;29;21018;-71
2021/09/09 11:55:14;;;;;;;0.90;0.40;;;26.40;1.00;;;;;;4915813;29;20396;-70
2021/09/09 11:57:44;;;;;;;0.90;0.40;;;26.50;1.00;;;;;;4915552;29;20461;-72
2021/09/09 12:00:14;;;;;;;1.00;0.40;;;26.60;1.00;;;;;;4915705;29;20514;-71
2021/09/09 12:02:45;;;;;;;1.00;0.40;;;26.50;1.00;;;;;;4915835;29;20803;-72
2021/09/09 12:05:17;;;;;;;1.00;0.40;;;26.50;1.00;;;;;;4914981;29;20799;-71
2021/09/09 12:07:46;;;;;;;1.00;0.40;;;26.50;1.00;;;;;;4915270;29;20465;-73
2021/09/09 12:10:22;;;;;;;1.00;0.40;;;26.60;1.00;;;;;;4915416;29;20449;-71
2021/09/09 12:12:58;;;;;;;0.93;0.40;;;26.70;1.00;;;;;;4911302;29;20464;-73
2021/09/09 12:15:28;;;;;;;0.97;0.40;;;26.70;1.00;;;;;;4916489;29;20433;-71
2021/09/09 12:18:10;;;;;;;0.90;0.40;;;26.60;1.00;;;;;;4915688;29;20520;-71
2021/09/09 12:20:38;;;;;;;0.90;0.40;;;26.70;1.00;;;;;;4920207;29;20892;-73
2021/09/09 12:23:07;;;;;;;0.97;0.40;;;26.80;1.00;;;;;;4914198;29;20972;-74
2021/09/09 12:25:37;;;;;;;1.00;0.40;;;26.90;1.00;;;;;;4914284;29;20469;-71
2021/09/09 12:28:08;;;;;;;1.00;0.40;;;26.90;1.00;;;;;;4915009;29;20430;-74
2021/09/09 12:30:38;;;;;;;1.00;0.40;;;27.00;1.00;;;;;;4913577;29;20912;-73
2021/09/09 12:33:19;;;;;;;1.00;0.40;;;26.90;1.00;;;;;;4914205;29;20445;-75
2021/09/09 12:36:09;;;;;;;0.97;0.40;;;26.80;1.00;;;;;;4914507;29;20410;-73
2021/09/09 12:38:41;;;;;;;1.00;0.40;;;26.90;1.00;;;;;;4914320;29;21063;-73
2021/09/09 12:41:10;;;;;;;1.00;0.40;;;27.00;1.00;;;;;;4914093;29;20518;-74
2021/09/09 12:43:40;;;;;;;1.00;0.40;;;27.00;1.00;;;;;;4897478;29;20501;-71
2021/09/09 12:46:24;;;;;;;0.90;0.40;;;27.10;1.00;;;;;;4913297;29;20870;-72
2021/09/09 12:49:03;;;;;;;0.97;0.40;;;27.20;1.00;;;;;;4914630;29;20425;-73
2021/09/09 12:51:31;;;;;;;0.90;0.40;;;27.10;1.00;;;;;;4906550;29;20508;-72
2021/09/09 12:54:00;;;;;;;1.00;0.40;;;27.10;1.00;;;;;;4898039;29;20868;-73
2021/09/09 12:56:28;;;;;;;0.90;0.40;;;27.10;1.00;;;;;;4913349;29;20483;-69
2021/09/09 12:58:56;;;;;;;0.93;0.40;;;27.10;1.00;;;;;;4914631;29;20552;-69
2021/09/09 13:01:24;;;;;;;0.90;0.40;;;27.10;1.00;;;;;;4913158;29;20928;-71
2021/09/09 13:03:53;;;;;;;1.00;0.40;;;27.10;1.00;;;;;;4914182;29;20432;-75